createdAt,value
2022-12-23T00:01:51.581Z,7.42
2022-12-23T00:04:18.700Z,7.17
2022-12-23T00:06:45.783Z,7.55
2022-12-23T00:09:12.824Z,8.11
2022-12-23T00:11:59.830Z,8.19
2022-12-23T00:14:45.217Z,7.70
2022-12-23T00:17:21.989Z,7.81
2022-12-23T00:19:49.869Z,8.03
2022-12-23T00:22:16.890Z,8.17
2022-12-23T00:24:44.149Z,8.36
2022-12-23T00:27:11.190Z,8.40
2022-12-23T00:29:38.212Z,8.06
2022-12-23T00:32:05.278Z,8.24
2022-12-23T00:34:32.445Z,8.56
2022-12-23T00:36:59.461Z,8.31
2022-12-23T00:39:45.159Z,8.83
2022-12-23T00:42:30.494Z,9.24
2022-12-23T00:45:15.350Z,9.03
2022-12-23T00:48:02.499Z,9.47
2022-12-23T00:50:30.215Z,9.30
2022-12-23T00:52:57.563Z,9.20
2022-12-23T00:55:24.874Z,9.49
2022-12-23T00:57:51.898Z,9.79
2022-12-23T01:00:19.715Z,9.82
2022-12-23T01:03:05.091Z,10.09
2022-12-23T01:05:37.759Z,10.79
2022-12-23T01:08:09.757Z,11.17
2022-12-23T01:10:39.555Z,11.66
2022-12-23T01:13:07.562Z,11.78
2022-12-23T01:15:34.614Z,12.34
2022-12-23T01:18:01.653Z,12.34
2022-12-23T01:20:28.756Z,12.20
2022-12-23T01:22:55.747Z,12.00
2022-12-23T01:25:22.768Z,12.05
2022-12-23T01:27:49.773Z,12.27
2022-12-23T01:30:16.961Z,12.55
2022-12-23T01:32:44.001Z,12.57
2022-12-23T01:35:11.023Z,12.28
2022-12-23T01:37:38.025Z,12.66
2022-12-23T01:40:05.688Z,12.75
2022-12-23T01:42:44.447Z,13.28
2022-12-23T01:45:20.857Z,13.92
2022-12-23T01:48:10.009Z,13.76
2022-12-23T01:50:57.358Z,13.28
2022-12-23T01:53:45.260Z,13.79
2022-12-23T01:56:19.795Z,13.56
2022-12-23T01:58:52.187Z,12.95
2022-12-23T02:01:38.080Z,12.69
2022-12-23T02:04:08.934Z,12.99
2022-12-23T02:06:58.190Z,13.20
2022-12-23T02:09:29.017Z,13.35
2022-12-23T02:12:17.590Z,13.86
2022-12-23T02:15:25.902Z,14.38
2022-12-23T02:18:21.063Z,14.84
2022-12-23T02:21:13.068Z,15.10
2022-12-23T02:23:58.212Z,16.16
2022-12-23T02:26:55.894Z,16.91
2022-12-23T02:29:55.523Z,18.14
2022-12-23T02:32:45.005Z,18.06
2022-12-23T02:35:49.634Z,18.30
2022-12-23T02:38:34.242Z,18.17
2022-12-23T02:41:26.734Z,18.25
2022-12-23T02:44:03.975Z,18.32
2022-12-23T02:46:47.195Z,18.10
2022-12-23T02:49:28.139Z,19.11
2022-12-23T02:52:01.648Z,19.81
2022-12-23T02:54:34.779Z,19.26
2022-12-23T02:57:05.853Z,20.70
2022-12-23T02:59:40.607Z,20.49
2022-12-23T03:02:07.783Z,20.69
2022-12-23T03:04:34.915Z,20.43
2022-12-23T03:07:07.492Z,21.24
2022-12-23T03:10:03.658Z,21.21
2022-12-23T03:12:39.647Z,22.33
2022-12-23T03:15:18.486Z,22.84
2022-12-23T03:18:05.399Z,22.82
2022-12-23T03:20:52.634Z,22.29
2022-12-23T03:23:19.650Z,22.33
2022-12-23T03:25:59.700Z,22.51
2022-12-23T03:28:42.142Z,22.61
2022-12-23T03:31:15.589Z,21.97
2022-12-23T03:33:51.300Z,22.35
2022-12-23T03:36:24.608Z,21.13
2022-12-23T03:38:55.805Z,21.23
2022-12-23T03:41:36.913Z,22.31
2022-12-23T03:44:21.509Z,22.69
2022-12-23T03:47:02.678Z,22.66
2022-12-23T03:49:40.138Z,22.25
2022-12-23T03:52:21.733Z,22.62
2022-12-23T03:54:59.083Z,22.32
2022-12-23T03:57:41.628Z,23.02
2022-12-23T04:00:09.476Z,22.97
2022-12-23T04:02:53.475Z,22.97
2022-12-23T04:05:27.264Z,22.55
2022-12-23T04:08:03.359Z,23.31
2022-12-23T04:10:31.765Z,23.69
2022-12-23T04:12:59.023Z,23.80
2022-12-23T04:15:27.839Z,23.94
2022-12-23T04:17:56.990Z,24.01
2022-12-23T04:20:24.604Z,24.17
2022-12-23T04:22:51.633Z,23.63
2022-12-23T04:25:19.559Z,23.27
2022-12-23T04:27:46.675Z,22.14
2022-12-23T04:30:14.099Z,21.17
2022-12-23T04:32:42.385Z,21.58
2022-12-23T04:35:10.976Z,21.04
2022-12-23T04:37:39.273Z,20.66
2022-12-23T04:40:07.263Z,21.29
2022-12-23T04:42:34.779Z,22.36
2022-12-23T04:45:02.124Z,21.80
2022-12-23T04:47:29.198Z,21.87
2022-12-23T04:49:56.350Z,22.42
2022-12-23T04:52:23.777Z,21.69
2022-12-23T04:54:50.846Z,21.53
2022-12-23T04:57:18.019Z,22.54
2022-12-23T04:59:45.066Z,22.98
2022-12-23T05:02:12.468Z,23.37
2022-12-23T05:04:39.758Z,23.82
2022-12-23T05:07:06.854Z,24.69
2022-12-23T05:09:33.861Z,25.28
2022-12-23T05:12:00.874Z,24.92
2022-12-23T05:14:27.910Z,24.00
2022-12-23T05:16:55.016Z,23.88
2022-12-23T05:19:22.098Z,22.66
2022-12-23T05:21:49.151Z,21.80
2022-12-23T05:24:16.151Z,21.67
2022-12-23T05:26:47.698Z,20.88
2022-12-23T05:29:15.969Z,20.66
2022-12-23T05:31:43.132Z,19.67
2022-12-23T05:34:10.312Z,18.38
2022-12-23T05:36:37.350Z,18.07
2022-12-23T05:39:04.451Z,16.61
2022-12-23T05:41:31.461Z,16.60
2022-12-23T05:43:58.474Z,17.06
2022-12-23T05:46:27.175Z,17.43
2022-12-23T05:48:54.485Z,17.31
2022-12-23T05:51:21.498Z,18.18
2022-12-23T05:53:48.504Z,17.97
2022-12-23T05:56:15.512Z,18.31
2022-12-23T05:58:42.573Z,19.50
2022-12-23T06:01:09.562Z,19.76
2022-12-23T06:03:36.733Z,19.79
2022-12-23T06:06:03.995Z,19.19
2022-12-23T06:08:31.054Z,19.61
2022-12-23T06:10:59.696Z,18.53
2022-12-23T06:13:26.704Z,17.69
2022-12-23T06:15:53.750Z,17.41
2022-12-23T06:18:20.774Z,17.93
2022-12-23T06:20:48.512Z,17.90
2022-12-23T06:23:15.555Z,18.57
2022-12-23T06:25:42.588Z,18.53
2022-12-23T06:28:09.618Z,18.12
2022-12-23T06:30:36.692Z,19.26
2022-12-23T06:33:03.745Z,18.53
2022-12-23T06:35:30.797Z,18.58
2022-12-23T06:37:57.856Z,18.55
2022-12-23T06:40:24.880Z,19.56
2022-12-23T06:42:51.982Z,18.62
2022-12-23T06:45:19.016Z,19.36
2022-12-23T06:47:46.018Z,19.79
2022-12-23T06:50:13.071Z,20.40
2022-12-23T06:52:40.111Z,20.55
2022-12-23T06:55:07.458Z,20.63
2022-12-23T06:57:34.454Z,20.92
2022-12-23T07:00:01.597Z,21.45
2022-12-23T07:02:28.752Z,21.54
2022-12-23T07:04:55.831Z,21.93
2022-12-23T07:07:22.838Z,21.79
2022-12-23T07:09:49.863Z,22.35
2022-12-23T07:12:16.907Z,21.63
2022-12-23T07:14:43.908Z,21.72
2022-12-23T07:17:10.996Z,20.90
2022-12-23T07:19:38.158Z,22.46
2022-12-23T07:22:05.299Z,23.26
2022-12-23T07:24:37.206Z,23.25
2022-12-23T07:27:04.466Z,23.37
2022-12-23T07:29:31.496Z,24.64
2022-12-23T07:31:58.619Z,25.02
2022-12-23T07:34:25.665Z,24.15
2022-12-23T07:36:52.723Z,24.41
2022-12-23T07:39:20.605Z,24.27
2022-12-23T07:41:47.634Z,24.98
2022-12-23T07:44:14.768Z,23.80
2022-12-23T07:46:42.032Z,24.20
2022-12-23T07:49:09.572Z,23.90
2022-12-23T07:51:36.611Z,23.87
2022-12-23T07:54:03.793Z,23.84
2022-12-23T07:56:30.801Z,23.41
2022-12-23T07:58:58.250Z,23.46
2022-12-23T08:01:25.301Z,22.57
2022-12-23T08:03:52.435Z,22.46
2022-12-23T08:06:19.677Z,22.70
2022-12-23T08:08:47.257Z,22.35
2022-12-23T08:11:15.654Z,22.39
2022-12-23T08:13:45.062Z,22.09
2022-12-23T08:16:12.740Z,23.08
2022-12-23T08:18:41.487Z,22.97
2022-12-23T08:21:17.872Z,23.25
2022-12-23T08:23:47.285Z,23.85
2022-12-23T08:26:21.840Z,24.10
2022-12-23T08:28:53.194Z,25.23
2022-12-23T08:31:24.132Z,24.45
2022-12-23T08:33:54.513Z,25.47
2022-12-23T08:36:31.113Z,24.71
2022-12-23T08:39:01.255Z,24.28
2022-12-23T08:41:31.729Z,25.33
2022-12-23T08:43:59.371Z,24.94
2022-12-23T08:46:27.495Z,24.17
2022-12-23T08:48:55.513Z,25.31
2022-12-23T08:51:25.018Z,24.52
2022-12-23T08:54:00.183Z,24.08
2022-12-23T08:56:31.850Z,25.03
2022-12-23T08:58:58.988Z,24.91
2022-12-23T09:01:29.657Z,24.12
2022-12-23T09:03:57.172Z,24.44
2022-12-23T09:06:29.820Z,24.25
2022-12-23T09:08:58.649Z,24.91
2022-12-23T09:11:28.561Z,24.96
2022-12-23T09:13:58.060Z,25.14
2022-12-23T09:16:25.235Z,23.75
2022-12-23T09:18:52.340Z,24.35
2022-12-23T09:21:22.579Z,23.11
2022-12-23T09:23:51.687Z,23.44
2022-12-23T09:26:23.207Z,23.36
2022-12-23T09:28:50.518Z,27.54
2022-12-23T09:31:18.593Z,22.87
2022-12-23T09:33:53.117Z,22.09
2022-12-23T09:36:21.908Z,23.27
2022-12-23T09:38:54.667Z,22.44
2022-12-23T09:42:01.188Z,21.28
2022-12-23T09:45:05.367Z,20.65
2022-12-23T09:47:34.646Z,20.22
2022-12-23T09:50:16.389Z,20.40
2022-12-23T09:52:59.295Z,19.85
2022-12-23T09:55:37.770Z,18.99
2022-12-23T09:58:31.907Z,18.36
2022-12-23T10:01:29.979Z,17.61
2022-12-23T10:04:09.280Z,18.34
2022-12-23T10:06:39.933Z,18.13
2022-12-23T10:09:10.058Z,18.82
2022-12-23T10:11:44.779Z,26.94
2022-12-23T10:14:18.712Z,54.42
2022-12-23T10:17:12.141Z,26.50
2022-12-23T10:19:47.053Z,16.74
2022-12-23T10:22:26.057Z,16.98
2022-12-23T10:24:57.571Z,17.06
2022-12-23T10:27:30.577Z,18.91
2022-12-23T10:30:33.762Z,20.53
2022-12-23T10:33:20.511Z,19.22
2022-12-23T10:36:15.191Z,18.51
2022-12-23T10:39:11.634Z,16.36
2022-12-23T10:41:52.624Z,15.44
2022-12-23T10:44:28.643Z,20.30
2022-12-23T10:47:17.118Z,23.70
2022-12-23T10:50:21.433Z,18.40
2022-12-23T10:52:51.755Z,13.86
2022-12-23T10:55:31.312Z,14.20
2022-12-23T10:58:14.467Z,13.80
2022-12-23T11:00:49.164Z,14.03
2022-12-23T11:03:33.773Z,13.57
2022-12-23T11:06:02.002Z,14.12
2022-12-23T11:08:31.992Z,13.11
2022-12-23T11:11:01.255Z,14.08
2022-12-23T11:13:43.310Z,14.24
2022-12-23T11:16:18.229Z,14.43
2022-12-23T11:19:04.064Z,13.38
2022-12-23T11:21:33.252Z,13.87
2022-12-23T11:24:20.286Z,13.02
2022-12-23T11:27:03.564Z,12.89
2022-12-23T11:29:38.547Z,11.98
2022-12-23T11:32:17.111Z,12.15
2022-12-23T11:34:47.534Z,11.98
2022-12-23T11:37:50.577Z,13.23
2022-12-23T11:40:32.633Z,12.97
2022-12-23T11:43:04.520Z,15.75
2022-12-23T11:45:36.536Z,18.80
2022-12-23T11:48:06.396Z,15.40
2022-12-23T11:50:36.736Z,12.25
2022-12-23T11:53:18.664Z,13.88
2022-12-23T11:56:02.798Z,13.34
2022-12-23T11:58:36.775Z,12.88
2022-12-23T12:01:14.916Z,12.56
2022-12-23T12:03:50.887Z,12.32
2022-12-23T12:06:20.251Z,11.54
2022-12-23T12:08:51.521Z,11.86
2022-12-23T12:11:44.063Z,11.52
2022-12-23T12:14:41.603Z,11.57
2022-12-23T12:17:19.930Z,16.50
2022-12-23T12:20:04.756Z,17.12
2022-12-23T12:22:41.017Z,17.31
2022-12-23T12:25:15.649Z,23.30
2022-12-23T12:27:49.200Z,20.42
2022-12-23T12:30:20.426Z,12.39
2022-12-23T12:32:59.162Z,14.81
2022-12-23T12:35:47.632Z,14.07
2022-12-23T12:38:20.592Z,12.11
2022-12-23T12:40:52.397Z,11.80
2022-12-23T12:43:33.316Z,11.51
2022-12-23T12:46:06.528Z,11.14
2022-12-23T12:49:02.221Z,11.14
2022-12-23T12:51:46.667Z,12.31
2022-12-23T12:54:39.218Z,17.44
2022-12-23T12:57:06.753Z,15.71
2022-12-23T12:59:38.657Z,13.28
2022-12-23T13:02:34.221Z,11.03
2022-12-23T13:05:16.088Z,9.92
2022-12-23T13:08:00.505Z,10.14
2022-12-23T13:10:46.473Z,10.04
2022-12-23T13:13:22.640Z,9.06
2022-12-23T13:16:40.955Z,8.01
2022-12-23T13:19:23.647Z,12.28
2022-12-23T13:22:08.369Z,9.62
2022-12-23T13:24:54.519Z,9.64
2022-12-23T13:27:34.164Z,9.14
2022-12-23T13:30:19.088Z,8.52
2022-12-23T13:32:52.100Z,8.32
2022-12-23T13:35:38.551Z,8.03
2022-12-23T13:38:20.789Z,8.34
2022-12-23T13:41:04.094Z,8.11
2022-12-23T13:43:57.791Z,7.71
2022-12-23T13:46:43.706Z,7.61
2022-12-23T13:49:16.781Z,7.82
2022-12-23T13:51:57.865Z,8.53
2022-12-23T13:54:49.420Z,9.31
2022-12-23T13:57:36.363Z,11.84
2022-12-23T14:00:16.091Z,15.58
2022-12-23T14:02:59.864Z,8.53
2022-12-23T14:05:43.761Z,7.97
2022-12-23T14:08:20.059Z,8.54
2022-12-23T14:10:57.272Z,9.53
2022-12-23T14:13:28.951Z,9.65
2022-12-23T14:16:35.138Z,9.53
2022-12-23T14:19:26.182Z,9.50
2022-12-23T14:22:17.502Z,9.32
2022-12-23T14:25:02.947Z,9.27
2022-12-23T14:27:41.419Z,8.63
2022-12-23T14:30:36.020Z,8.71
2022-12-23T14:33:14.315Z,10.19
2022-12-23T14:35:42.874Z,10.78
2022-12-23T14:38:15.993Z,11.34
2022-12-23T14:40:42.996Z,10.53
2022-12-23T14:43:22.138Z,10.16
2022-12-23T14:45:52.175Z,9.67
2022-12-23T14:48:34.304Z,10.20
2022-12-23T14:51:10.129Z,10.69
2022-12-23T14:53:59.685Z,10.05
2022-12-23T14:56:38.495Z,14.38
2022-12-23T14:59:34.566Z,17.27
2022-12-23T15:02:20.657Z,12.68
2022-12-23T15:04:52.975Z,9.90
2022-12-23T15:07:34.536Z,10.01
2022-12-23T15:10:06.305Z,10.16
2022-12-23T15:12:34.854Z,10.87
2022-12-23T15:15:16.193Z,10.46
2022-12-23T15:17:43.725Z,14.98
2022-12-23T15:20:10.823Z,18.13
2022-12-23T15:22:38.966Z,16.49
2022-12-23T15:25:22.911Z,10.24
2022-12-23T15:27:59.087Z,9.92
2022-12-23T15:30:34.195Z,10.10
2022-12-23T15:33:27.989Z,10.90
2022-12-23T15:35:55.363Z,9.48
2022-12-23T15:38:29.575Z,9.98
2022-12-23T15:41:02.665Z,9.91
2022-12-23T15:43:30.203Z,20.27
2022-12-23T15:46:20.781Z,25.32
2022-12-23T15:48:50.973Z,24.69
2022-12-23T15:51:50.047Z,10.59
2022-12-23T15:54:21.195Z,14.23
2022-12-23T15:56:52.385Z,11.47
2022-12-23T15:59:32.709Z,11.29
2022-12-23T16:02:24.960Z,9.62
2022-12-23T16:05:02.364Z,8.88
2022-12-23T16:07:41.395Z,8.81
2022-12-23T16:10:20.329Z,9.28
2022-12-23T16:12:51.534Z,10.33
2022-12-23T16:15:26.204Z,10.43
2022-12-23T16:18:11.855Z,11.29
2022-12-23T16:20:46.388Z,11.70
2022-12-23T16:23:14.171Z,12.16
2022-12-23T16:25:50.508Z,12.49
2022-12-23T16:28:23.984Z,12.77
2022-12-23T16:30:57.695Z,13.65
2022-12-23T16:33:38.487Z,14.14
2022-12-23T16:36:25.177Z,13.67
2022-12-23T16:39:14.062Z,15.66
2022-12-23T16:41:41.082Z,15.15
2022-12-23T16:44:08.159Z,15.81
2022-12-23T16:46:45.426Z,15.79
2022-12-23T16:49:17.397Z,16.61
2022-12-23T16:51:45.181Z,16.67
2022-12-23T16:54:16.455Z,17.48
2022-12-23T16:56:43.739Z,17.12
2022-12-23T16:59:10.795Z,18.20
2022-12-23T17:01:45.309Z,16.18
2022-12-23T17:04:12.515Z,14.48
2022-12-23T17:06:40.672Z,13.51
2022-12-23T17:09:10.130Z,12.48
2022-12-23T17:11:43.229Z,10.68
2022-12-23T17:14:23.433Z,10.12
2022-12-23T17:16:51.355Z,10.58
2022-12-23T17:19:27.229Z,10.36
2022-12-23T17:22:02.018Z,10.92
2022-12-23T17:24:29.685Z,11.09
2022-12-23T17:26:57.481Z,11.98
2022-12-23T17:29:24.509Z,12.38
2022-12-23T17:31:52.762Z,12.37
2022-12-23T17:34:22.367Z,12.29
2022-12-23T17:36:50.804Z,12.35
2022-12-23T17:39:19.269Z,11.17
2022-12-23T17:41:46.690Z,11.11
2022-12-23T17:44:15.896Z,10.93
2022-12-23T17:46:44.350Z,10.04
2022-12-23T17:49:11.658Z,10.25
2022-12-23T17:51:40.203Z,10.34
2022-12-23T17:54:07.381Z,13.98
2022-12-23T17:56:34.383Z,11.24
2022-12-23T17:59:01.389Z,10.48
2022-12-23T18:01:31.605Z,9.42
2022-12-23T18:03:59.950Z,8.98
2022-12-23T18:06:28.866Z,8.53
2022-12-23T18:08:59.457Z,7.90
2022-12-23T18:11:44.015Z,7.95
2022-12-23T18:14:17.556Z,7.78
2022-12-23T18:16:44.679Z,7.21
2022-12-23T18:19:17.972Z,7.71
2022-12-23T18:21:45.570Z,7.61
2022-12-23T18:24:12.844Z,6.87
2022-12-23T18:26:40.008Z,7.64
2022-12-23T18:29:07.049Z,7.33
2022-12-23T18:31:37.218Z,7.62
2022-12-23T18:34:04.521Z,7.51
2022-12-23T18:36:33.860Z,7.60
2022-12-23T18:39:01.072Z,7.92
2022-12-23T18:41:28.259Z,7.65
2022-12-23T18:43:55.339Z,7.11
2022-12-23T18:46:22.682Z,8.21
2022-12-23T18:48:49.807Z,7.39
2022-12-23T18:51:19.882Z,8.13
2022-12-23T18:53:48.380Z,7.48
2022-12-23T18:56:20.001Z,7.76
2022-12-23T18:58:47.369Z,7.59
2022-12-23T19:01:16.303Z,8.28
2022-12-23T19:03:44.356Z,7.73
2022-12-23T19:06:15.451Z,7.49
2022-12-23T19:08:43.269Z,7.53
2022-12-23T19:11:16.377Z,8.03
2022-12-23T19:13:44.160Z,8.46
2022-12-23T19:16:17.246Z,7.36
2022-12-23T19:18:46.263Z,7.57
2022-12-23T19:21:13.934Z,7.79
2022-12-23T19:23:41.897Z,7.89
2022-12-23T19:26:10.347Z,7.72
2022-12-23T19:28:39.005Z,8.36
2022-12-23T19:31:12.018Z,11.85
2022-12-23T19:33:40.952Z,8.58
2022-12-23T19:36:13.020Z,8.28
2022-12-23T19:38:40.498Z,8.39
2022-12-23T19:41:08.881Z,8.59
2022-12-23T19:43:38.147Z,8.60
2022-12-23T19:46:08.484Z,9.62
2022-12-23T19:48:36.400Z,11.51
2022-12-23T19:51:12.331Z,10.29
2022-12-23T19:53:41.638Z,9.45
2022-12-23T19:56:13.364Z,9.04
2022-12-23T19:58:43.736Z,9.67
2022-12-23T20:01:23.963Z,9.20
2022-12-23T20:03:53.276Z,9.47
2022-12-23T20:06:30.255Z,9.01
2022-12-23T20:09:00.938Z,9.15
2022-12-23T20:11:30.447Z,9.66
2022-12-23T20:13:58.440Z,8.85
2022-12-23T20:16:27.145Z,8.07
2022-12-23T20:18:54.905Z,8.46
2022-12-23T20:21:22.435Z,7.83
2022-12-23T20:23:50.265Z,8.36
2022-12-23T20:26:19.553Z,8.98
2022-12-23T20:28:46.909Z,8.99
2022-12-23T20:31:20.552Z,8.27
2022-12-23T20:33:49.130Z,7.87
2022-12-23T20:36:20.098Z,8.60
2022-12-23T20:38:47.986Z,7.79
2022-12-23T20:41:19.235Z,8.11
2022-12-23T20:44:02.810Z,8.14
2022-12-23T20:46:34.049Z,8.52
2022-12-23T20:49:01.261Z,8.47
2022-12-23T20:51:28.267Z,8.78
2022-12-23T20:53:59.892Z,9.36
2022-12-23T20:56:29.138Z,9.83
2022-12-23T20:59:02.277Z,8.56
2022-12-23T21:01:35.051Z,8.53
2022-12-23T21:04:06.181Z,8.79
2022-12-23T21:06:34.420Z,8.79
2022-12-23T21:09:04.815Z,9.06
2022-12-23T21:11:34.428Z,8.85
2022-12-23T21:14:06.123Z,9.29
2022-12-23T21:16:34.692Z,8.66
2022-12-23T21:19:01.790Z,9.06
2022-12-23T21:21:31.005Z,9.46
2022-12-23T21:24:01.746Z,8.87
2022-12-23T21:26:30.565Z,8.57
2022-12-23T21:28:59.842Z,8.29
2022-12-23T21:31:29.479Z,7.67
2022-12-23T21:33:56.974Z,7.46
2022-12-23T21:36:30.723Z,7.73
2022-12-23T21:38:59.183Z,8.41
2022-12-23T21:41:31.929Z,8.13
2022-12-23T21:44:00.122Z,8.39
2022-12-23T21:46:28.899Z,8.31
2022-12-23T21:48:58.234Z,8.18
2022-12-23T21:51:34.850Z,7.95
2022-12-23T21:54:05.919Z,8.06
2022-12-23T21:56:32.957Z,7.24
2022-12-23T21:59:13.027Z,8.05
2022-12-23T22:01:41.359Z,7.77
2022-12-23T22:04:08.461Z,8.69
2022-12-23T22:06:38.563Z,8.25
2022-12-23T22:09:07.406Z,8.52
2022-12-23T22:11:37.833Z,7.95
2022-12-23T22:14:07.929Z,8.62
2022-12-23T22:16:35.775Z,8.01
2022-12-23T22:19:04.724Z,7.72
2022-12-23T22:21:33.328Z,7.89
2022-12-23T22:24:01.827Z,8.24
2022-12-23T22:26:31.813Z,8.49
2022-12-23T22:29:01.155Z,8.17
2022-12-23T22:31:31.068Z,8.17
2022-12-23T22:33:58.971Z,8.40
2022-12-23T22:36:26.268Z,8.92
2022-12-23T22:38:57.121Z,8.53
2022-12-23T22:41:25.670Z,8.75
2022-12-23T22:43:52.755Z,8.07
2022-12-23T22:46:20.109Z,8.14
2022-12-23T22:48:47.270Z,8.07
2022-12-23T22:51:17.445Z,8.54
2022-12-23T22:53:45.472Z,8.93
2022-12-23T22:56:14.534Z,7.77
2022-12-23T22:58:42.145Z,8.18
2022-12-23T23:01:31.295Z,10.87
2022-12-23T23:04:00.878Z,8.60
2022-12-23T23:06:31.109Z,7.84
2022-12-23T23:08:58.420Z,7.83
2022-12-23T23:11:26.932Z,8.27
2022-12-23T23:13:54.640Z,7.76
2022-12-23T23:16:23.281Z,7.79
2022-12-23T23:18:51.497Z,7.63
2022-12-23T23:21:19.077Z,7.61
2022-12-23T23:23:46.132Z,7.79
2022-12-23T23:26:13.587Z,7.95
2022-12-23T23:28:41.538Z,8.15
2022-12-23T23:31:40.633Z,8.68
2022-12-23T23:33:57.715Z,8.65
2022-12-23T23:36:25.452Z,8.49
2022-12-23T23:38:52.498Z,8.81
2022-12-23T23:41:23.227Z,8.10
2022-12-23T23:43:51.844Z,8.74
2022-12-23T23:46:19.315Z,8.40
2022-12-23T23:48:46.492Z,8.06
2022-12-23T23:51:13.503Z,8.27
2022-12-23T23:53:40.720Z,8.27
2022-12-23T23:56:08.744Z,8.18
2022-12-23T23:58:37.396Z,8.12
